createdAt,value
2018-02-19T00:00:28.619Z,4.34
2018-02-19T00:01:28.692Z,4.29
2018-02-19T00:02:28.745Z,4.32
2018-02-19T00:03:28.811Z,4.27
2018-02-19T00:04:28.871Z,4.27
2018-02-19T00:05:28.939Z,4.29
2018-02-19T00:06:29.013Z,4.27
2018-02-19T00:07:29.086Z,4.24
2018-02-19T00:08:29.148Z,4.26
2018-02-19T00:09:29.199Z,4.22
2018-02-19T00:10:29.268Z,4.24
2018-02-19T00:11:29.334Z,4.18
2018-02-19T00:12:29.400Z,4.27
2018-02-19T00:13:29.465Z,4.23
2018-02-19T00:14:29.532Z,4.22
2018-02-19T00:15:29.591Z,4.20
2018-02-19T00:16:29.668Z,4.23
2018-02-19T00:17:29.727Z,4.20
2018-02-19T00:18:29.794Z,4.18
2018-02-19T00:19:29.857Z,4.24
2018-02-19T00:20:29.929Z,4.23
2018-02-19T00:21:29.987Z,4.24
2018-02-19T00:22:30.069Z,4.23
2018-02-19T00:23:30.113Z,4.16
2018-02-19T00:24:30.186Z,4.26
2018-02-19T00:25:30.279Z,4.16
2018-02-19T00:26:30.309Z,4.22
2018-02-19T00:27:30.391Z,4.30
2018-02-19T00:28:30.448Z,4.32
2018-02-19T00:29:30.507Z,4.23
2018-02-19T00:30:30.563Z,4.23
2018-02-19T00:31:30.638Z,4.26
2018-02-19T00:32:30.700Z,4.30
2018-02-19T00:33:30.767Z,4.23
2018-02-19T00:34:30.834Z,4.34
2018-02-19T00:35:30.906Z,4.27
2018-02-19T00:36:31.010Z,4.33
2018-02-19T00:37:31.028Z,4.33
2018-02-19T00:38:31.092Z,4.30
2018-02-19T00:39:31.156Z,4.30
2018-02-19T00:40:31.225Z,4.26
2018-02-19T00:41:31.294Z,4.26
2018-02-19T00:42:31.354Z,4.26
2018-02-19T00:43:31.437Z,4.23
2018-02-19T00:44:31.488Z,4.30
2018-02-19T00:45:31.549Z,4.32
2018-02-19T00:46:31.610Z,4.26
2018-02-19T00:47:31.686Z,4.32
2018-02-19T00:48:31.745Z,4.24
2018-02-19T00:49:31.811Z,4.29
2018-02-19T00:50:31.879Z,4.32
2018-02-19T00:51:31.941Z,4.29
2018-02-19T00:52:32.015Z,4.24
2018-02-19T00:53:32.079Z,4.29
2018-02-19T00:54:32.143Z,4.34
2018-02-19T00:55:32.200Z,4.29
2018-02-19T00:56:32.265Z,4.40
2018-02-19T00:57:32.325Z,4.34
2018-02-19T00:58:32.407Z,4.32
2018-02-19T00:59:32.520Z,4.34
2018-02-19T01:00:32.525Z,4.32
2018-02-19T01:01:32.610Z,4.24
2018-02-19T01:02:32.665Z,4.26
2018-02-19T01:03:32.719Z,4.23
2018-02-19T01:04:32.798Z,4.29
2018-02-19T01:05:32.849Z,4.23
2018-02-19T01:06:32.917Z,4.29
2018-02-19T01:07:32.984Z,4.30
2018-02-19T01:08:33.050Z,4.26
2018-02-19T01:09:33.118Z,4.29
2018-02-19T01:10:33.180Z,4.29
2018-02-19T01:11:33.243Z,4.26
2018-02-19T01:12:33.315Z,4.26
2018-02-19T01:13:33.369Z,4.18
2018-02-19T01:14:33.438Z,4.20
2018-02-19T01:15:33.509Z,4.23
2018-02-19T01:16:33.587Z,4.15
2018-02-19T01:17:33.647Z,4.18
2018-02-19T01:18:33.702Z,4.24
2018-02-19T01:19:33.759Z,4.23
2018-02-19T01:20:33.822Z,4.15
2018-02-19T01:21:33.894Z,4.20
2018-02-19T01:22:33.958Z,4.09
2018-02-19T01:23:34.025Z,4.08
2018-02-19T01:24:34.092Z,4.12
2018-02-19T01:25:34.162Z,4.08
2018-02-19T01:26:34.226Z,4.08
2018-02-19T01:27:34.290Z,4.11
2018-02-19T01:28:34.358Z,4.06
2018-02-19T01:29:34.436Z,4.06
2018-02-19T01:30:34.478Z,4.06
2018-02-19T01:31:34.540Z,4.08
2018-02-19T01:32:34.607Z,4.06
2018-02-19T01:33:34.666Z,4.05
2018-02-19T01:34:34.730Z,4.05
2018-02-19T01:35:34.804Z,3.91
2018-02-19T01:36:34.870Z,3.97
2018-02-19T01:37:34.930Z,4.00
2018-02-19T01:38:35.024Z,4.06
2018-02-19T01:39:35.075Z,3.96
2018-02-19T01:40:35.127Z,3.87
2018-02-19T01:41:35.206Z,3.94
2018-02-19T01:42:35.273Z,3.90
2018-02-19T01:43:35.322Z,3.90
2018-02-19T01:44:35.390Z,3.90
2018-02-19T01:45:35.451Z,3.93
2018-02-19T01:46:35.513Z,3.91
2018-02-19T01:47:35.581Z,3.88
2018-02-19T01:48:35.676Z,3.91
2018-02-19T01:49:35.706Z,3.86
2018-02-19T01:50:35.771Z,3.87
2018-02-19T01:51:35.861Z,3.88
2018-02-19T01:52:35.900Z,3.79
2018-02-19T01:53:35.977Z,3.80
2018-02-19T01:54:36.035Z,3.79
2018-02-19T01:55:36.430Z,3.80
2018-02-19T01:56:36.170Z,3.79
2018-02-19T01:57:36.225Z,3.76
2018-02-19T01:58:36.288Z,3.72
2018-02-19T01:59:36.355Z,3.69
2018-02-19T02:00:36.458Z,3.80
2018-02-19T02:01:36.486Z,3.65
2018-02-19T02:02:36.585Z,3.73
2018-02-19T02:03:36.623Z,3.69
2018-02-19T02:04:36.684Z,3.65
2018-02-19T02:05:36.756Z,3.72
2018-02-19T02:06:36.808Z,3.52
2018-02-19T02:07:36.876Z,3.66
2018-02-19T02:08:36.948Z,3.57
2018-02-19T02:09:37.005Z,3.55
2018-02-19T02:10:37.076Z,3.60
2018-02-19T02:11:37.134Z,3.55
2018-02-19T02:12:37.194Z,3.57
2018-02-19T02:13:37.274Z,3.58
2018-02-19T02:14:37.335Z,3.61
2018-02-19T02:15:37.389Z,3.58
2018-02-19T02:16:37.458Z,3.54
2018-02-19T02:17:37.526Z,3.57
2018-02-19T02:18:37.588Z,3.66
2018-02-19T02:19:37.656Z,3.62
2018-02-19T02:20:37.722Z,3.62
2018-02-19T02:21:37.849Z,3.62
2018-02-19T02:22:37.844Z,3.48
2018-02-19T02:23:37.910Z,3.52
2018-02-19T02:24:37.987Z,3.50
2018-02-19T02:25:38.048Z,3.58
2018-02-19T02:26:38.123Z,3.52
2018-02-19T02:27:38.172Z,3.52
2018-02-19T02:28:38.237Z,3.50
2018-02-19T02:29:38.298Z,3.52
2018-02-19T02:30:38.367Z,3.52
2018-02-19T02:31:38.425Z,3.52
2018-02-19T02:32:38.504Z,3.50
2018-02-19T02:33:38.557Z,3.50
2018-02-19T02:34:38.620Z,3.58
2018-02-19T02:35:38.693Z,3.62
2018-02-19T02:36:38.752Z,3.54
2018-02-19T02:37:38.822Z,3.60
2018-02-19T02:38:38.879Z,3.65
2018-02-19T02:39:38.951Z,3.68
2018-02-19T02:40:39.008Z,3.70
2018-02-19T02:41:39.724Z,3.72
2018-02-19T02:42:43.863Z,3.75
2018-02-19T02:43:39.200Z,3.79
2018-02-19T02:44:39.268Z,3.72
2018-02-19T02:45:39.334Z,3.75
2018-02-19T02:46:39.414Z,3.78
2018-02-19T02:47:39.490Z,3.78
2018-02-19T02:48:39.530Z,3.76
2018-02-19T02:49:39.590Z,3.73
2018-02-19T02:50:39.887Z,3.72
2018-02-19T02:51:39.714Z,3.73
2018-02-19T02:52:39.790Z,3.72
2018-02-19T02:53:40.541Z,3.69
2018-02-19T02:54:39.926Z,3.70
2018-02-19T02:55:39.980Z,3.70
2018-02-19T02:56:40.061Z,3.65
2018-02-19T02:57:40.106Z,3.60
2018-02-19T02:58:40.182Z,3.69
2018-02-19T02:59:40.242Z,3.70
2018-02-19T03:00:40.308Z,3.66
2018-02-19T03:01:40.374Z,3.69
2018-02-19T03:02:40.451Z,3.79
2018-02-19T03:03:40.495Z,3.66
2018-02-19T03:04:40.575Z,3.79
2018-02-19T03:05:40.647Z,3.79
2018-02-19T03:06:40.688Z,3.70
2018-02-19T03:07:40.760Z,3.78
2018-02-19T03:08:40.847Z,3.73
2018-02-19T03:09:40.893Z,3.78
2018-02-19T03:10:40.954Z,3.79
2018-02-19T03:11:41.017Z,3.79
2018-02-19T03:12:41.093Z,3.72
2018-02-19T03:13:41.141Z,3.87
2018-02-19T03:14:41.215Z,3.88
2018-02-19T03:15:41.276Z,3.91
2018-02-19T03:16:41.338Z,3.86
2018-02-19T03:17:41.403Z,4.00
2018-02-19T03:18:41.472Z,3.91
2018-02-19T03:19:41.540Z,3.91
2018-02-19T03:20:41.599Z,3.98
2018-02-19T03:21:41.661Z,3.97
2018-02-19T03:22:41.728Z,4.09
2018-02-19T03:23:41.802Z,4.12
2018-02-19T03:24:41.859Z,4.15
2018-02-19T03:25:41.936Z,4.04
2018-02-19T03:26:42.003Z,4.08
2018-02-19T03:27:42.045Z,4.00
2018-02-19T03:28:42.122Z,4.09
2018-02-19T03:29:42.181Z,4.12
2018-02-19T03:30:42.250Z,4.06
2018-02-19T03:31:42.316Z,4.12
2018-02-19T03:32:42.384Z,4.12
2018-02-19T03:33:42.552Z,4.09
2018-02-19T03:34:42.503Z,4.12
2018-02-19T03:35:42.574Z,4.09
2018-02-19T03:36:42.636Z,4.08
2018-02-19T03:37:42.713Z,4.12
2018-02-19T03:38:42.770Z,4.06
2018-02-19T03:39:42.837Z,4.09
2018-02-19T03:40:42.903Z,4.16
2018-02-19T03:41:42.957Z,4.05
2018-02-19T03:42:43.051Z,4.15
2018-02-19T03:43:43.095Z,4.11
2018-02-19T03:44:43.166Z,4.12
2018-02-19T03:45:43.218Z,4.15
2018-02-19T03:46:43.290Z,4.15
2018-02-19T03:47:43.345Z,4.12
2018-02-19T03:48:43.412Z,4.04
2018-02-19T03:49:43.484Z,4.12
2018-02-19T03:50:43.550Z,4.04
2018-02-19T03:51:43.610Z,4.11
2018-02-19T03:52:43.673Z,4.06
2018-02-19T03:53:43.751Z,4.06
2018-02-19T03:54:43.804Z,4.05
2018-02-19T03:55:43.864Z,4.15
2018-02-19T03:56:43.943Z,4.02
2018-02-19T03:57:43.993Z,4.12
2018-02-19T03:58:44.064Z,4.09
2018-02-19T03:59:44.136Z,4.11
2018-02-19T04:00:44.202Z,4.15
2018-02-19T04:01:44.277Z,4.12
2018-02-19T04:02:44.327Z,4.16
2018-02-19T04:03:44.387Z,4.09
2018-02-19T04:04:44.468Z,4.12
2018-02-19T04:05:44.519Z,4.11
2018-02-19T04:06:44.586Z,4.09
2018-02-19T04:07:44.651Z,4.04
2018-02-19T04:08:44.714Z,4.09
2018-02-19T04:09:44.779Z,4.08
2018-02-19T04:10:44.852Z,4.04
2018-02-19T04:11:44.907Z,4.12
2018-02-19T04:12:44.968Z,4.11
2018-02-19T04:13:45.034Z,4.08
2018-02-19T04:14:45.101Z,4.08
2018-02-19T04:15:45.202Z,4.00
2018-02-19T04:16:45.235Z,4.06
2018-02-19T04:17:45.295Z,4.09
2018-02-19T04:18:45.356Z,4.11
2018-02-19T04:19:45.432Z,4.12
2018-02-19T04:20:45.489Z,4.14
2018-02-19T04:21:45.554Z,4.06
2018-02-19T04:22:45.622Z,4.04
2018-02-19T04:23:45.684Z,4.20
2018-02-19T04:24:45.749Z,4.14
2018-02-19T04:25:45.815Z,4.16
2018-02-19T04:26:45.874Z,4.11
2018-02-19T04:27:45.947Z,4.06
2018-02-19T04:28:46.014Z,4.08
2018-02-19T04:29:46.092Z,4.05
2018-02-19T04:30:46.138Z,4.11
2018-02-19T04:31:46.204Z,4.11
2018-02-19T04:32:46.270Z,4.09
2018-02-19T04:33:46.336Z,4.00
2018-02-19T04:34:46.395Z,4.09
2018-02-19T04:35:46.486Z,4.06
2018-02-19T04:36:46.524Z,4.08
2018-02-19T04:37:46.596Z,4.05
2018-02-19T04:38:46.665Z,4.11
2018-02-19T04:39:46.721Z,4.09
2018-02-19T04:40:46.790Z,4.02
2018-02-19T04:41:46.884Z,4.05
2018-02-19T04:42:57.787Z,4.14
2018-02-19T04:43:46.991Z,4.15
2018-02-19T04:44:47.050Z,4.09
2018-02-19T04:45:47.114Z,4.09
2018-02-19T04:46:47.170Z,4.14
2018-02-19T04:47:47.240Z,4.11
2018-02-19T04:48:47.321Z,4.15
2018-02-19T04:49:47.367Z,4.20
2018-02-19T04:50:47.438Z,4.20
2018-02-19T04:51:47.510Z,4.26
2018-02-19T04:52:47.558Z,4.29
2018-02-19T04:53:47.630Z,4.26
2018-02-19T04:54:47.699Z,4.14
2018-02-19T04:55:47.760Z,4.27
2018-02-19T04:56:47.829Z,4.16
2018-02-19T04:57:47.890Z,4.24
2018-02-19T04:58:47.954Z,4.23
2018-02-19T04:59:48.029Z,4.24
2018-02-19T05:00:48.082Z,4.15
2018-02-19T05:01:48.148Z,4.12
2018-02-19T05:02:48.218Z,4.23
2018-02-19T05:03:48.282Z,4.23
2018-02-19T05:04:48.348Z,4.16
2018-02-19T05:05:48.409Z,4.24
2018-02-19T05:06:48.490Z,4.14
2018-02-19T05:07:48.546Z,4.16
2018-02-19T05:08:48.610Z,4.15
2018-02-19T05:09:48.668Z,4.11
2018-02-19T05:10:48.739Z,4.12
2018-02-19T05:11:48.801Z,4.15
2018-02-19T05:12:48.882Z,4.18
2018-02-19T05:13:48.927Z,4.08
2018-02-19T05:14:49.009Z,4.02
2018-02-19T05:15:49.061Z,4.05
2018-02-19T05:16:49.124Z,4.08
2018-02-19T05:17:49.181Z,4.04
2018-02-19T05:18:49.254Z,4.14
2018-02-19T05:19:49.316Z,4.08
2018-02-19T05:20:49.391Z,4.12
2018-02-19T05:21:49.441Z,4.12
2018-02-19T05:22:49.506Z,4.05
2018-02-19T05:23:49.595Z,4.11
2018-02-19T05:24:49.645Z,4.15
2018-02-19T05:25:49.725Z,4.20
2018-02-19T05:26:49.770Z,4.22
2018-02-19T05:27:49.834Z,4.29
2018-02-19T05:28:49.902Z,4.23
2018-02-19T05:29:49.974Z,4.30
2018-02-19T05:30:50.036Z,4.23
2018-02-19T05:31:50.107Z,4.22
2018-02-19T05:32:50.162Z,4.22
2018-02-19T05:33:50.227Z,4.16
2018-02-19T05:34:50.294Z,4.22
2018-02-19T05:35:50.360Z,4.27
2018-02-19T05:36:50.419Z,4.24
2018-02-19T05:37:50.480Z,4.20
2018-02-19T05:38:50.552Z,4.22
2018-02-19T05:39:50.630Z,4.23
2018-02-19T05:40:50.681Z,4.16
2018-02-19T05:41:50.757Z,4.16
2018-02-19T05:42:50.816Z,4.22
2018-02-19T05:43:50.868Z,4.18
2018-02-19T05:44:50.939Z,4.18
2018-02-19T05:45:51.011Z,4.27
2018-02-19T05:46:51.073Z,4.23
2018-02-19T05:47:51.153Z,4.20
2018-02-19T05:48:51.203Z,4.22
2018-02-19T05:49:51.283Z,4.22
2018-02-19T05:50:51.331Z,4.24
2018-02-19T05:51:51.403Z,4.24
2018-02-19T05:52:51.461Z,4.26
2018-02-19T05:53:51.523Z,4.26
2018-02-19T05:54:51.596Z,4.24
2018-02-19T05:55:51.660Z,4.30
2018-02-19T05:56:51.721Z,4.26
2018-02-19T05:57:51.781Z,4.26
2018-02-19T05:58:51.851Z,4.26
2018-02-19T05:59:51.913Z,4.23
2018-02-19T06:00:51.975Z,4.34
2018-02-19T06:01:52.049Z,4.36
2018-02-19T06:02:52.106Z,4.40
2018-02-19T06:03:52.184Z,4.37
2018-02-19T06:04:52.253Z,4.33
2018-02-19T06:05:52.311Z,4.37
2018-02-19T06:06:52.394Z,4.42
2018-02-19T06:07:52.442Z,4.47
2018-02-19T06:08:52.498Z,4.48
2018-02-19T06:09:52.569Z,4.40
2018-02-19T06:10:52.635Z,4.45
2018-02-19T06:11:53.176Z,4.41
2018-02-19T06:12:52.761Z,4.42
2018-02-19T06:13:52.843Z,4.48
2018-02-19T06:14:52.904Z,4.47
2018-02-19T06:15:52.946Z,4.48
2018-02-19T06:16:53.017Z,4.41
2018-02-19T06:17:53.084Z,4.48
2018-02-19T06:18:53.148Z,4.44
2018-02-19T06:19:53.211Z,4.41
2018-02-19T06:20:53.284Z,4.40
2018-02-19T06:21:53.344Z,4.41
2018-02-19T06:22:53.410Z,4.40
2018-02-19T06:23:53.474Z,4.37
2018-02-19T06:24:53.543Z,4.37
2018-02-19T06:25:53.605Z,4.34
2018-02-19T06:26:53.665Z,4.42
2018-02-19T06:27:53.729Z,4.40
2018-02-19T06:28:53.799Z,4.48
2018-02-19T06:29:53.861Z,4.50
2018-02-19T06:30:53.928Z,4.45
2018-02-19T06:31:53.993Z,4.50
2018-02-19T06:32:54.066Z,4.51
2018-02-19T06:33:54.120Z,4.65
2018-02-19T06:34:54.184Z,4.59
2018-02-19T06:35:54.334Z,4.69
2018-02-19T06:36:54.323Z,4.72
2018-02-19T06:37:54.380Z,4.67
2018-02-19T06:38:54.455Z,4.65
2018-02-19T06:39:54.508Z,4.58
2018-02-19T06:40:54.580Z,4.73
2018-02-19T06:41:54.640Z,4.77
2018-02-19T06:42:54.723Z,4.73
2018-02-19T06:43:54.768Z,4.78
2018-02-19T06:44:54.845Z,4.73
2018-02-19T06:45:54.906Z,4.86
2018-02-19T06:46:54.985Z,4.85
2018-02-19T06:47:55.041Z,4.88
2018-02-19T06:48:55.094Z,4.91
2018-02-19T06:49:55.160Z,4.85
2018-02-19T06:50:55.227Z,4.86
2018-02-19T06:51:55.320Z,4.84
2018-02-19T06:52:55.362Z,4.85
2018-02-19T06:53:55.424Z,4.85
2018-02-19T06:54:55.522Z,4.82
2018-02-19T06:55:55.560Z,4.82
2018-02-19T06:56:55.631Z,4.86
2018-02-19T06:57:55.696Z,4.82
2018-02-19T06:58:55.748Z,4.97
2018-02-19T06:59:55.832Z,4.91
2018-02-19T07:00:55.893Z,4.96
2018-02-19T07:01:55.950Z,4.99
2018-02-19T07:02:56.014Z,4.94
2018-02-19T07:03:56.080Z,4.97
2018-02-19T07:04:56.144Z,5.03
2018-02-19T07:05:56.216Z,5.04
2018-02-19T07:06:56.272Z,5.03
2018-02-19T07:07:56.336Z,5.02
2018-02-19T07:08:56.399Z,5.04
2018-02-19T07:09:56.468Z,5.06
2018-02-19T07:10:56.547Z,4.99
2018-02-19T07:11:56.655Z,5.04
2018-02-19T07:12:56.663Z,5.10
2018-02-19T07:13:56.731Z,5.06
2018-02-19T07:14:56.792Z,5.15
2018-02-19T07:15:56.861Z,5.10
2018-02-19T07:16:56.930Z,5.15
2018-02-19T07:17:56.989Z,5.15
2018-02-19T07:18:57.061Z,5.17
2018-02-19T07:19:57.126Z,5.15
2018-02-19T07:20:57.183Z,5.06
2018-02-19T07:21:57.253Z,5.12
2018-02-19T07:22:57.314Z,5.17
2018-02-19T07:23:57.377Z,5.22
2018-02-19T07:24:57.444Z,5.24
2018-02-19T07:25:57.511Z,5.36
2018-02-19T07:26:57.581Z,5.25
2018-02-19T07:27:57.644Z,5.36
2018-02-19T07:28:57.709Z,5.43
2018-02-19T07:29:57.772Z,5.51
2018-02-19T07:30:57.841Z,5.51
2018-02-19T07:31:57.906Z,5.53
2018-02-19T07:32:57.985Z,5.54
2018-02-19T07:33:58.048Z,5.61
2018-02-19T07:34:58.102Z,5.57
2018-02-19T07:35:58.155Z,5.67
2018-02-19T07:36:58.239Z,5.68
2018-02-19T07:37:58.302Z,5.79
2018-02-19T07:38:58.360Z,5.82
2018-02-19T07:39:58.432Z,5.78
2018-02-19T07:40:58.499Z,5.85
2018-02-19T07:41:58.562Z,5.76
2018-02-19T07:42:58.645Z,5.83
2018-02-19T07:43:58.688Z,5.83
2018-02-19T07:44:58.756Z,5.82
2018-02-19T07:45:58.832Z,5.90
2018-02-19T07:46:58.880Z,5.94
2018-02-19T07:47:58.948Z,5.90
2018-02-19T07:48:59.015Z,5.93
2018-02-19T07:49:59.078Z,5.94
2018-02-19T07:50:59.219Z,6.06
2018-02-19T07:51:59.276Z,6.14
2018-02-19T07:52:59.287Z,6.14
2018-02-19T07:53:59.344Z,6.17
2018-02-19T07:54:59.412Z,6.25
2018-02-19T07:55:59.472Z,6.27
2018-02-19T07:56:59.554Z,6.22
2018-02-19T07:57:59.610Z,6.31
2018-02-19T07:58:59.672Z,6.31
2018-02-19T07:59:59.743Z,6.38
2018-02-19T08:00:59.802Z,6.55
2018-02-19T08:01:59.868Z,6.48
2018-02-19T08:02:59.937Z,6.48
2018-02-19T08:04:00.000Z,6.44
2018-02-19T08:05:00.071Z,6.52
2018-02-19T08:06:00.180Z,6.48
2018-02-19T08:07:00.208Z,6.44
2018-02-19T08:08:00.264Z,6.44
2018-02-19T08:09:00.350Z,6.54
2018-02-19T08:10:00.401Z,6.55
2018-02-19T08:11:00.461Z,6.52
2018-02-19T08:12:00.523Z,6.62
2018-02-19T08:13:00.599Z,6.67
2018-02-19T08:14:00.665Z,6.76
2018-02-19T08:15:01.286Z,6.80
2018-02-19T08:16:00.799Z,6.98
2018-02-19T08:17:00.872Z,6.99
2018-02-19T08:18:01.010Z,6.92
2018-02-19T08:19:01.009Z,6.98
2018-02-19T08:20:01.065Z,6.92
2018-02-19T08:21:01.125Z,6.95
2018-02-19T08:22:01.199Z,6.95
2018-02-19T08:23:01.257Z,7.03
2018-02-19T08:24:01.334Z,6.95
2018-02-19T08:25:01.385Z,7.06
2018-02-19T08:26:01.452Z,7.17
2018-02-19T08:27:01.527Z,7.31
2018-02-19T08:28:01.590Z,7.34
2018-02-19T08:29:01.662Z,7.60
2018-02-19T08:30:01.734Z,7.86
2018-02-19T08:31:01.783Z,7.98
2018-02-19T08:32:01.856Z,8.16
2018-02-19T08:33:01.919Z,8.37
2018-02-19T08:34:01.984Z,8.50
2018-02-19T08:35:02.049Z,8.80
2018-02-19T08:36:02.124Z,9.05
2018-02-19T08:37:02.191Z,9.39
2018-02-19T08:38:02.253Z,9.74
2018-02-19T08:39:02.322Z,10.09
2018-02-19T08:40:02.390Z,10.71
2018-02-19T08:41:02.455Z,11.09
2018-02-19T08:42:02.539Z,11.52
2018-02-19T08:43:02.597Z,11.91
2018-02-19T08:44:02.654Z,12.27
2018-02-19T08:45:02.727Z,12.90
2018-02-19T08:46:02.802Z,13.55
2018-02-19T08:47:02.858Z,13.85
2018-02-19T08:48:03.122Z,14.58
2018-02-19T08:49:03.001Z,15.82
2018-02-19T08:50:03.061Z,16.50
2018-02-19T08:51:03.131Z,16.60
2018-02-19T08:52:03.230Z,17.06
2018-02-19T08:53:03.271Z,18.12
2018-02-19T08:54:03.337Z,18.91
2018-02-19T08:55:03.420Z,19.43
2018-02-19T08:56:03.496Z,19.11
2018-02-19T08:57:03.562Z,18.85
2018-02-19T08:58:03.621Z,18.66
2018-02-19T08:59:03.700Z,18.02
2018-02-19T09:00:03.787Z,17.54
2018-02-19T09:01:03.864Z,16.91
2018-02-19T09:02:03.910Z,16.25
2018-02-19T09:03:04.006Z,15.89
2018-02-19T09:04:04.059Z,15.93
2018-02-19T09:05:04.140Z,15.96
2018-02-19T09:06:04.200Z,15.87
2018-02-19T09:07:04.268Z,15.82
2018-02-19T09:08:04.336Z,15.54
2018-02-19T09:09:04.410Z,15.13
2018-02-19T09:10:04.485Z,14.89
2018-02-19T09:11:04.554Z,14.50
2018-02-19T09:12:04.622Z,14.28
2018-02-19T09:13:04.701Z,14.06
2018-02-19T09:14:04.765Z,13.84
2018-02-19T09:15:04.859Z,13.54
2018-02-19T09:16:04.916Z,13.41
2018-02-19T09:17:05.031Z,13.20
2018-02-19T09:18:05.087Z,13.07
2018-02-19T09:19:05.122Z,12.89
2018-02-19T09:20:05.187Z,12.85
2018-02-19T09:21:05.307Z,12.68
2018-02-19T09:22:05.336Z,12.56
2018-02-19T09:23:05.401Z,12.45
2018-02-19T09:24:05.503Z,12.29
2018-02-19T09:25:05.547Z,12.07
2018-02-19T09:26:05.604Z,11.85
2018-02-19T09:27:05.699Z,11.80
2018-02-19T09:28:05.753Z,11.60
2018-02-19T09:29:05.842Z,11.51
2018-02-19T09:30:05.898Z,11.35
2018-02-19T09:31:05.955Z,11.36
2018-02-19T09:32:06.026Z,11.32
2018-02-19T09:33:06.100Z,11.15
2018-02-19T09:34:06.162Z,11.10
2018-02-19T09:35:06.226Z,10.96
2018-02-19T09:36:06.304Z,10.92
2018-02-19T09:37:06.373Z,11.00
2018-02-19T09:38:06.438Z,11.09
2018-02-19T09:39:06.526Z,11.29
2018-02-19T09:40:06.582Z,11.49
2018-02-19T09:41:06.646Z,11.83
2018-02-19T09:42:06.725Z,11.99
2018-02-19T09:43:06.795Z,12.28
2018-02-19T09:44:06.866Z,12.42
2018-02-19T09:45:06.914Z,12.59
2018-02-19T09:46:06.998Z,12.68
2018-02-19T09:47:07.062Z,12.89
2018-02-19T09:48:07.127Z,13.20
2018-02-19T09:49:07.200Z,13.33
2018-02-19T09:50:07.268Z,13.64
2018-02-19T09:51:07.345Z,14.09
2018-02-19T09:52:07.408Z,14.47
2018-02-19T09:53:07.478Z,14.72
2018-02-19T09:54:07.554Z,15.14
2018-02-19T09:55:07.631Z,15.51
2018-02-19T09:56:07.698Z,15.60
2018-02-19T09:57:07.802Z,15.67
2018-02-19T09:58:07.826Z,15.93
2018-02-19T09:59:07.917Z,15.94
2018-02-19T10:00:07.978Z,15.76
2018-02-19T10:01:08.033Z,15.65
2018-02-19T10:02:08.102Z,15.51
2018-02-19T10:03:08.172Z,15.49
2018-02-19T10:04:08.249Z,15.35
2018-02-19T10:05:08.338Z,15.25
2018-02-19T10:06:08.393Z,15.17
2018-02-19T10:07:08.466Z,15.28
2018-02-19T10:08:08.524Z,15.50
2018-02-19T10:09:08.590Z,15.44
2018-02-19T10:10:08.675Z,15.32
2018-02-19T10:11:08.744Z,15.14
2018-02-19T10:12:08.861Z,15.17
2018-02-19T10:13:08.886Z,15.17
2018-02-19T10:14:08.949Z,15.20
2018-02-19T10:15:09.042Z,15.36
2018-02-19T10:16:09.091Z,15.68
2018-02-19T10:17:09.175Z,15.82
2018-02-19T10:18:09.241Z,15.83
2018-02-19T10:19:09.299Z,15.84
2018-02-19T10:20:09.381Z,16.02
2018-02-19T10:21:09.460Z,16.23
2018-02-19T10:22:09.614Z,16.20
2018-02-19T10:23:09.599Z,17.30
2018-02-19T10:24:09.675Z,17.90
2018-02-19T10:25:09.738Z,18.18
2018-02-19T10:26:09.810Z,17.95
2018-02-19T10:27:09.884Z,18.44
2018-02-19T10:28:09.953Z,18.81
2018-02-19T10:29:10.024Z,18.95
2018-02-19T10:30:10.100Z,19.44
2018-02-19T10:31:10.168Z,19.08
2018-02-19T10:32:10.231Z,19.11
2018-02-19T10:33:10.306Z,19.29
2018-02-19T10:34:10.378Z,19.18
2018-02-19T10:35:10.450Z,19.69
2018-02-19T10:36:10.660Z,20.02
2018-02-19T10:37:10.599Z,20.69
2018-02-19T10:38:11.104Z,21.61
2018-02-19T10:39:10.739Z,22.65
2018-02-19T10:40:10.813Z,23.02
2018-02-19T10:41:10.892Z,23.78
2018-02-19T10:42:11.082Z,23.43
2018-02-19T10:43:11.062Z,23.04
2018-02-19T10:44:11.109Z,23.39
2018-02-19T10:45:11.180Z,23.38
2018-02-19T10:46:11.294Z,23.50
2018-02-19T10:47:11.343Z,23.46
2018-02-19T10:48:11.409Z,23.22
2018-02-19T10:49:11.482Z,23.90
2018-02-19T10:50:11.558Z,25.05
2018-02-19T10:51:11.631Z,26.23
2018-02-19T10:52:11.702Z,27.06
2018-02-19T10:53:11.789Z,27.29
2018-02-19T10:54:11.864Z,26.69
2018-02-19T10:55:11.929Z,26.39
2018-02-19T10:56:12.010Z,25.76
2018-02-19T10:57:12.082Z,25.52
2018-02-19T10:58:12.161Z,24.49
2018-02-19T10:59:12.241Z,24.08
2018-02-19T11:00:12.320Z,23.66
2018-02-19T11:01:12.387Z,23.70
2018-02-19T11:02:12.469Z,23.32
2018-02-19T11:03:12.542Z,22.86
2018-02-19T11:04:12.706Z,22.42
2018-02-19T11:05:12.696Z,22.03
2018-02-19T11:06:12.775Z,21.44
2018-02-19T11:07:12.848Z,21.07
2018-02-19T11:08:12.922Z,21.13
2018-02-19T11:09:12.998Z,21.25
2018-02-19T11:10:13.077Z,21.09
2018-02-19T11:11:13.156Z,21.04
2018-02-19T11:12:13.228Z,20.94
2018-02-19T11:13:13.319Z,20.67
2018-02-19T11:14:13.371Z,20.79
2018-02-19T11:15:13.447Z,20.80
2018-02-19T11:16:13.519Z,20.97
2018-02-19T11:17:13.594Z,20.92
2018-02-19T11:18:13.682Z,21.03
2018-02-19T11:19:13.746Z,20.69
2018-02-19T11:20:13.823Z,20.70
2018-02-19T11:21:13.896Z,20.55
2018-02-19T11:22:13.976Z,20.66
2018-02-19T11:23:14.044Z,20.72
2018-02-19T11:24:14.121Z,20.61
2018-02-19T11:25:14.198Z,20.70
2018-02-19T11:26:14.272Z,20.67
2018-02-19T11:27:14.338Z,20.77
2018-02-19T11:28:14.423Z,20.80
2018-02-19T11:29:14.488Z,20.70
2018-02-19T11:30:14.567Z,20.52
2018-02-19T11:31:14.656Z,20.48
2018-02-19T11:32:14.721Z,20.28
2018-02-19T11:33:14.792Z,20.24
2018-02-19T11:34:14.865Z,19.96
2018-02-19T11:35:14.936Z,19.99
2018-02-19T11:36:15.009Z,19.59
2018-02-19T11:37:15.094Z,19.16
2018-02-19T11:38:15.161Z,18.76
2018-02-19T11:39:15.255Z,18.39
2018-02-19T11:40:15.313Z,18.08
2018-02-19T11:41:15.388Z,17.95
2018-02-19T11:42:15.466Z,17.59
2018-02-19T11:43:15.531Z,17.38
2018-02-19T11:44:15.606Z,17.15
2018-02-19T11:45:15.686Z,17.07
2018-02-19T11:46:15.754Z,17.18
2018-02-19T11:47:15.825Z,17.18
2018-02-19T11:48:15.901Z,17.07
2018-02-19T11:49:15.977Z,16.98
2018-02-19T11:50:16.062Z,16.81
2018-02-19T11:51:16.891Z,16.58
2018-02-19T11:52:16.202Z,16.50
2018-02-19T11:53:16.269Z,16.50
2018-02-19T11:54:16.332Z,16.41
2018-02-19T11:55:16.410Z,16.48
2018-02-19T11:56:16.477Z,16.50
2018-02-19T11:57:16.554Z,16.63
2018-02-19T11:58:16.741Z,16.66
2018-02-19T11:59:16.711Z,16.81
2018-02-19T12:00:16.779Z,16.81
2018-02-19T12:01:16.859Z,16.83
2018-02-19T12:02:16.924Z,17.18
2018-02-19T12:03:17.016Z,17.37
2018-02-19T12:04:17.083Z,17.44
2018-02-19T12:05:17.242Z,17.40
2018-02-19T12:06:17.218Z,17.26
2018-02-19T12:07:17.291Z,17.14
2018-02-19T12:08:17.368Z,17.06
2018-02-19T12:09:17.456Z,17.03
2018-02-19T12:10:17.544Z,17.01
2018-02-19T12:11:17.610Z,16.98
2018-02-19T12:12:17.653Z,17.14
2018-02-19T12:13:17.726Z,17.44
2018-02-19T12:14:17.789Z,17.59
2018-02-19T12:15:17.875Z,17.70
2018-02-19T12:16:17.941Z,17.81
2018-02-19T12:17:18.000Z,17.81
2018-02-19T12:18:18.117Z,17.86
2018-02-19T12:19:18.190Z,18.25
2018-02-19T12:20:18.236Z,18.32
2018-02-19T12:21:18.296Z,18.50
2018-02-19T12:22:18.413Z,18.33
2018-02-19T12:23:18.466Z,18.26
2018-02-19T12:24:18.506Z,18.52
2018-02-19T12:25:18.602Z,19.07
2018-02-19T12:26:18.662Z,18.85
2018-02-19T12:27:18.740Z,18.66
2018-02-19T12:28:18.810Z,18.48
2018-02-19T12:29:18.892Z,18.51
2018-02-19T12:30:18.959Z,18.66
2018-02-19T12:31:19.034Z,18.98
2018-02-19T12:32:19.110Z,19.21
2018-02-19T12:33:19.188Z,19.51
2018-02-19T12:34:19.250Z,19.47
2018-02-19T12:35:19.317Z,19.32
2018-02-19T12:36:19.400Z,19.29
2018-02-19T12:37:19.455Z,19.33
2018-02-19T12:38:19.530Z,19.54
2018-02-19T12:39:20.039Z,19.41
2018-02-19T12:40:19.674Z,19.55
2018-02-19T12:41:19.747Z,19.91
2018-02-19T12:42:19.826Z,20.08
2018-02-19T12:43:19.895Z,20.29
2018-02-19T12:44:19.978Z,20.29
2018-02-19T12:45:20.066Z,20.35
2018-02-19T12:46:20.125Z,20.26
2018-02-19T12:47:20.263Z,20.50
2018-02-19T12:48:20.280Z,20.64
2018-02-19T12:49:20.899Z,20.58
2018-02-19T12:50:20.425Z,20.39
2018-02-19T12:51:20.492Z,20.08
2018-02-19T12:52:20.557Z,20.08
2018-02-19T12:53:20.636Z,20.28
2018-02-19T12:54:20.709Z,20.55
2018-02-19T12:55:20.778Z,20.62
2018-02-19T12:56:20.866Z,20.42
2018-02-19T12:57:20.950Z,19.99
2018-02-19T12:58:21.027Z,19.76
2018-02-19T12:59:21.098Z,19.78
2018-02-19T13:00:21.154Z,20.01
2018-02-19T13:01:21.222Z,20.29
2018-02-19T13:02:21.299Z,20.58
2018-02-19T13:03:21.385Z,21.27
2018-02-19T13:04:21.452Z,22.28
2018-02-19T13:05:21.529Z,22.72
2018-02-19T13:06:21.586Z,24.16
2018-02-19T13:07:21.671Z,24.25
2018-02-19T13:08:21.740Z,24.34
2018-02-19T13:09:21.829Z,24.00
2018-02-19T13:10:21.905Z,23.57